sensor_id;sensor_type;location;lat;lon;timestamp;P1;durP1;ratioP1;P2;durP2;ratioP2
41861;SDS011;27537;57.134;-2.136;2023-06-10T00:02:01;9.70;;;3.38;;
41861;SDS011;27537;57.134;-2.136;2023-06-10T00:04:29;9.38;;;3.28;;
41861;SDS011;27537;57.134;-2.136;2023-06-10T00:06:56;11.20;;;4.20;;
41861;SDS011;27537;57.134;-2.136;2023-06-10T00:09:23;8.80;;;3.72;;
41861;SDS011;27537;57.134;-2.136;2023-06-10T00:11:50;7.97;;;3.17;;
41861;SDS011;27537;57.134;-2.136;2023-06-10T00:14:16;8.93;;;3.35;;
41861;SDS011;27537;57.134;-2.136;2023-06-10T00:16:44;8.95;;;3.92;;
41861;SDS011;27537;57.134;-2.136;2023-06-10T00:19:11;11.10;;;3.72;;
41861;SDS011;27537;57.134;-2.136;2023-06-10T00:21:40;9.32;;;3.70;;
41861;SDS011;27537;57.134;-2.136;2023-06-10T00:24:07;12.82;;;4.07;;
41861;SDS011;27537;57.134;-2.136;2023-06-10T00:26:41;10.43;;;4.30;;
41861;SDS011;27537;57.134;-2.136;2023-06-10T00:29:07;9.30;;;3.72;;
41861;SDS011;27537;57.134;-2.136;2023-06-10T00:31:35;10.48;;;4.28;;
41861;SDS011;27537;57.134;-2.136;2023-06-10T00:34:02;9.57;;;3.42;;
41861;SDS011;27537;57.134;-2.136;2023-06-10T00:36:28;11.00;;;4.95;;
41861;SDS011;27537;57.134;-2.136;2023-06-10T00:38:56;9.43;;;3.63;;
41861;SDS011;27537;57.134;-2.136;2023-06-10T00:41:23;9.82;;;4.13;;
41861;SDS011;27537;57.134;-2.136;2023-06-10T00:43:52;9.48;;;4.22;;
41861;SDS011;27537;57.134;-2.136;2023-06-10T00:46:19;9.77;;;4.63;;
41861;SDS011;27537;57.134;-2.136;2023-06-10T00:48:48;9.93;;;4.40;;
41861;SDS011;27537;57.134;-2.136;2023-06-10T00:51:16;10.00;;;4.43;;
41861;SDS011;27537;57.134;-2.136;2023-06-10T00:53:44;9.48;;;4.00;;
41861;SDS011;27537;57.134;-2.136;2023-06-10T00:56:11;10.93;;;4.85;;
41861;SDS011;27537;57.134;-2.136;2023-06-10T00:58:39;12.75;;;5.15;;
41861;SDS011;27537;57.134;-2.136;2023-06-10T01:01:06;10.25;;;4.03;;
41861;SDS011;27537;57.134;-2.136;2023-06-10T01:03:33;7.72;;;3.20;;
41861;SDS011;27537;57.134;-2.136;2023-06-10T01:06:09;10.68;;;3.97;;
41861;SDS011;27537;57.134;-2.136;2023-06-10T01:09:49;8.13;;;3.47;;
41861;SDS011;27537;57.134;-2.136;2023-06-10T01:12:08;15.68;;;4.57;;
41861;SDS011;27537;57.134;-2.136;2023-06-10T01:14:42;10.18;;;3.75;;
41861;SDS011;27537;57.134;-2.136;2023-06-10T01:17:10;9.80;;;3.70;;
41861;SDS011;27537;57.134;-2.136;2023-06-10T01:19:38;11.38;;;4.20;;
41861;SDS011;27537;57.134;-2.136;2023-06-10T01:22:04;10.23;;;3.65;;
41861;SDS011;27537;57.134;-2.136;2023-06-10T01:24:32;10.00;;;4.05;;
41861;SDS011;27537;57.134;-2.136;2023-06-10T01:27:01;11.35;;;4.22;;
41861;SDS011;27537;57.134;-2.136;2023-06-10T01:32:38;10.60;;;4.30;;
41861;SDS011;27537;57.134;-2.136;2023-06-10T01:35:09;13.00;;;4.40;;
41861;SDS011;27537;57.134;-2.136;2023-06-10T01:37:38;9.23;;;4.35;;
41861;SDS011;27537;57.134;-2.136;2023-06-10T01:40:06;8.63;;;3.72;;
41861;SDS011;27537;57.134;-2.136;2023-06-10T01:42:34;11.30;;;3.53;;
41861;SDS011;27537;57.134;-2.136;2023-06-10T01:45:01;9.02;;;3.50;;
41861;SDS011;27537;57.134;-2.136;2023-06-10T01:47:28;10.60;;;4.10;;
41861;SDS011;27537;57.134;-2.136;2023-06-10T01:49:55;12.35;;;4.93;;
41861;SDS011;27537;57.134;-2.136;2023-06-10T01:52:22;8.25;;;3.60;;
41861;SDS011;27537;57.134;-2.136;2023-06-10T01:54:49;11.18;;;4.35;;
41861;SDS011;27537;57.134;-2.136;2023-06-10T01:57:16;10.68;;;4.28;;
41861;SDS011;27537;57.134;-2.136;2023-06-10T01:59:42;11.18;;;3.50;;
41861;SDS011;27537;57.134;-2.136;2023-06-10T02:02:10;10.63;;;3.75;;
41861;SDS011;27537;57.134;-2.136;2023-06-10T02:04:37;10.43;;;4.30;;
41861;SDS011;27537;57.134;-2.136;2023-06-10T02:07:04;9.95;;;3.78;;
41861;SDS011;27537;57.134;-2.136;2023-06-10T02:09:32;9.43;;;4.10;;
41861;SDS011;27537;57.134;-2.136;2023-06-10T02:12:04;11.85;;;3.75;;
41861;SDS011;27537;57.134;-2.136;2023-06-10T02:14:32;8.40;;;3.50;;
41861;SDS011;27537;57.134;-2.136;2023-06-10T02:16:59;8.27;;;3.25;;
41861;SDS011;27537;57.134;-2.136;2023-06-10T02:19:27;12.23;;;4.40;;
41861;SDS011;27537;57.134;-2.136;2023-06-10T02:21:54;9.85;;;3.80;;
41861;SDS011;27537;57.134;-2.136;2023-06-10T02:24:21;10.50;;;3.42;;
41861;SDS011;27537;57.134;-2.136;2023-06-10T02:26:48;11.98;;;3.45;;
41861;SDS011;27537;57.134;-2.136;2023-06-10T02:29:15;8.68;;;3.85;;
41861;SDS011;27537;57.134;-2.136;2023-06-10T02:31:41;9.05;;;3.42;;
41861;SDS011;27537;57.134;-2.136;2023-06-10T02:34:08;10.23;;;3.53;;
41861;SDS011;27537;57.134;-2.136;2023-06-10T02:36:35;9.73;;;3.22;;
41861;SDS011;27537;57.134;-2.136;2023-06-10T02:39:02;8.38;;;3.17;;
41861;SDS011;27537;57.134;-2.136;2023-06-10T02:41:31;7.75;;;3.22;;
41861;SDS011;27537;57.134;-2.136;2023-06-10T02:43:57;9.20;;;3.72;;
41861;SDS011;27537;57.134;-2.136;2023-06-10T02:46:24;10.45;;;3.67;;
41861;SDS011;27537;57.134;-2.136;2023-06-10T02:48:51;11.68;;;3.88;;
41861;SDS011;27537;57.134;-2.136;2023-06-10T02:51:18;9.65;;;3.55;;
41861;SDS011;27537;57.134;-2.136;2023-06-10T02:53:45;10.27;;;3.45;;
41861;SDS011;27537;57.134;-2.136;2023-06-10T02:56:11;9.15;;;3.65;;
41861;SDS011;27537;57.134;-2.136;2023-06-10T02:58:40;11.13;;;4.32;;
41861;SDS011;27537;57.134;-2.136;2023-06-10T03:01:06;9.35;;;3.55;;
41861;SDS011;27537;57.134;-2.136;2023-06-10T03:03:33;8.80;;;2.95;;
41861;SDS011;27537;57.134;-2.136;2023-06-10T03:06:00;9.20;;;3.30;;
41861;SDS011;27537;57.134;-2.136;2023-06-10T03:08:28;8.63;;;3.90;;
41861;SDS011;27537;57.134;-2.136;2023-06-10T03:10:55;10.05;;;3.92;;
41861;SDS011;27537;57.134;-2.136;2023-06-10T03:13:21;9.98;;;3.42;;
41861;SDS011;27537;57.134;-2.136;2023-06-10T03:15:48;10.65;;;3.38;;
41861;SDS011;27537;57.134;-2.136;2023-06-10T03:18:15;14.27;;;3.92;;
41861;SDS011;27537;57.134;-2.136;2023-06-10T03:20:42;9.60;;;3.40;;
41861;SDS011;27537;57.134;-2.136;2023-06-10T03:23:10;11.30;;;4.93;;
41861;SDS011;27537;57.134;-2.136;2023-06-10T03:25:38;12.13;;;3.67;;
41861;SDS011;27537;57.134;-2.136;2023-06-10T03:28:04;8.68;;;3.50;;
41861;SDS011;27537;57.134;-2.136;2023-06-10T03:30:31;9.45;;;2.83;;
41861;SDS011;27537;57.134;-2.136;2023-06-10T03:32:58;9.40;;;3.58;;
41861;SDS011;27537;57.134;-2.136;2023-06-10T03:35:26;8.32;;;2.70;;
41861;SDS011;27537;57.134;-2.136;2023-06-10T03:37:53;8.05;;;3.13;;
41861;SDS011;27537;57.134;-2.136;2023-06-10T03:40:19;8.27;;;3.00;;
41861;SDS011;27537;57.134;-2.136;2023-06-10T03:42:46;11.70;;;4.35;;
41861;SDS011;27537;57.134;-2.136;2023-06-10T03:45:13;9.20;;;4.40;;
41861;SDS011;27537;57.134;-2.136;2023-06-10T03:47:40;11.68;;;3.92;;
41861;SDS011;27537;57.134;-2.136;2023-06-10T03:50:07;11.50;;;4.05;;
41861;SDS011;27537;57.134;-2.136;2023-06-10T03:52:35;12.63;;;4.22;;
41861;SDS011;27537;57.134;-2.136;2023-06-10T03:55:02;9.25;;;3.13;;
41861;SDS011;27537;57.134;-2.136;2023-06-10T03:57:30;10.10;;;4.45;;
41861;SDS011;27537;57.134;-2.136;2023-06-10T03:59:56;10.32;;;3.47;;
41861;SDS011;27537;57.134;-2.136;2023-06-10T04:02:23;10.40;;;3.70;;
41861;SDS011;27537;57.134;-2.136;2023-06-10T04:04:50;10.40;;;3.85;;
41861;SDS011;27537;57.134;-2.136;2023-06-10T04:07:17;12.52;;;4.43;;
41861;SDS011;27537;57.134;-2.136;2023-06-10T04:09:46;11.52;;;4.57;;
41861;SDS011;27537;57.134;-2.136;2023-06-10T04:12:13;10.85;;;3.85;;
41861;SDS011;27537;57.134;-2.136;2023-06-10T04:14:40;12.07;;;4.70;;
41861;SDS011;27537;57.134;-2.136;2023-06-10T04:17:08;7.97;;;3.53;;
41861;SDS011;27537;57.134;-2.136;2023-06-10T04:19:35;8.02;;;3.70;;
41861;SDS011;27537;57.134;-2.136;2023-06-10T04:22:01;9.02;;;3.28;;
41861;SDS011;27537;57.134;-2.136;2023-06-10T04:24:29;8.88;;;3.92;;
41861;SDS011;27537;57.134;-2.136;2023-06-10T04:26:56;10.27;;;4.00;;
41861;SDS011;27537;57.134;-2.136;2023-06-10T04:29:23;11.05;;;4.75;;
41861;SDS011;27537;57.134;-2.136;2023-06-10T04:31:50;9.73;;;3.72;;
41861;SDS011;27537;57.134;-2.136;2023-06-10T04:34:17;12.70;;;4.25;;
41861;SDS011;27537;57.134;-2.136;2023-06-10T04:36:44;11.05;;;4.38;;
41861;SDS011;27537;57.134;-2.136;2023-06-10T04:39:10;11.57;;;4.13;;
41861;SDS011;27537;57.134;-2.136;2023-06-10T04:41:37;10.85;;;4.20;;
41861;SDS011;27537;57.134;-2.136;2023-06-10T04:44:04;9.90;;;3.40;;
41861;SDS011;27537;57.134;-2.136;2023-06-10T04:46:31;13.20;;;4.57;;
41861;SDS011;27537;57.134;-2.136;2023-06-10T04:48:58;8.90;;;3.55;;
41861;SDS011;27537;57.134;-2.136;2023-06-10T04:51:24;12.75;;;4.15;;
41861;SDS011;27537;57.134;-2.136;2023-06-10T04:53:52;11.27;;;3.60;;
41861;SDS011;27537;57.134;-2.136;2023-06-10T04:56:18;17.48;;;3.97;;
41861;SDS011;27537;57.134;-2.136;2023-06-10T04:58:46;13.15;;;4.57;;
41861;SDS011;27537;57.134;-2.136;2023-06-10T05:01:13;9.60;;;3.58;;
41861;SDS011;27537;57.134;-2.136;2023-06-10T05:03:40;12.63;;;4.32;;
41861;SDS011;27537;57.134;-2.136;2023-06-10T05:06:07;8.43;;;3.60;;
41861;SDS011;27537;57.134;-2.136;2023-06-10T05:08:33;8.38;;;3.70;;
41861;SDS011;27537;57.134;-2.136;2023-06-10T05:11:00;9.55;;;3.70;;
41861;SDS011;27537;57.134;-2.136;2023-06-10T05:13:27;9.95;;;4.13;;
41861;SDS011;27537;57.134;-2.136;2023-06-10T05:15:53;11.77;;;4.55;;
41861;SDS011;27537;57.134;-2.136;2023-06-10T05:18:20;13.68;;;4.72;;
41861;SDS011;27537;57.134;-2.136;2023-06-10T05:20:47;10.05;;;4.07;;
41861;SDS011;27537;57.134;-2.136;2023-06-10T05:23:14;8.93;;;3.72;;
41861;SDS011;27537;57.134;-2.136;2023-06-10T05:25:41;10.05;;;4.32;;
41861;SDS011;27537;57.134;-2.136;2023-06-10T05:28:08;9.93;;;4.65;;
41861;SDS011;27537;57.134;-2.136;2023-06-10T05:30:39;10.52;;;4.10;;
41861;SDS011;27537;57.134;-2.136;2023-06-10T05:33:06;9.32;;;3.83;;
41861;SDS011;27537;57.134;-2.136;2023-06-10T05:35:33;9.60;;;4.57;;
41861;SDS011;27537;57.134;-2.136;2023-06-10T05:37:59;11.10;;;3.40;;
41861;SDS011;27537;57.134;-2.136;2023-06-10T05:40:29;9.82;;;3.33;;
41861;SDS011;27537;57.134;-2.136;2023-06-10T05:42:56;12.55;;;4.55;;
41861;SDS011;27537;57.134;-2.136;2023-06-10T05:45:22;18.95;;;4.70;;
41861;SDS011;27537;57.134;-2.136;2023-06-10T05:47:49;11.40;;;3.65;;
41861;SDS011;27537;57.134;-2.136;2023-06-10T05:50:16;9.93;;;3.38;;
41861;SDS011;27537;57.134;-2.136;2023-06-10T05:52:42;11.35;;;3.55;;
41861;SDS011;27537;57.134;-2.136;2023-06-10T05:55:09;12.60;;;3.60;;
41861;SDS011;27537;57.134;-2.136;2023-06-10T05:57:37;12.07;;;3.97;;
41861;SDS011;27537;57.134;-2.136;2023-06-10T06:00:04;11.05;;;3.97;;
41861;SDS011;27537;57.134;-2.136;2023-06-10T06:02:31;10.77;;;3.60;;
41861;SDS011;27537;57.134;-2.136;2023-06-10T06:04:58;11.95;;;3.75;;
41861;SDS011;27537;57.134;-2.136;2023-06-10T06:07:25;12.35;;;3.78;;
41861;SDS011;27537;57.134;-2.136;2023-06-10T06:09:51;9.30;;;3.25;;
41861;SDS011;27537;57.134;-2.136;2023-06-10T06:12:18;11.15;;;3.50;;
41861;SDS011;27537;57.134;-2.136;2023-06-10T06:14:45;7.72;;;2.90;;
41861;SDS011;27537;57.134;-2.136;2023-06-10T06:17:11;14.70;;;3.78;;
41861;SDS011;27537;57.134;-2.136;2023-06-10T06:19:38;9.98;;;3.38;;
41861;SDS011;27537;57.134;-2.136;2023-06-10T06:22:05;11.32;;;3.33;;
41861;SDS011;27537;57.134;-2.136;2023-06-10T06:24:32;9.40;;;2.95;;
41861;SDS011;27537;57.134;-2.136;2023-06-10T06:26:59;12.45;;;3.88;;
41861;SDS011;27537;57.134;-2.136;2023-06-10T06:29:26;9.68;;;3.08;;
41861;SDS011;27537;57.134;-2.136;2023-06-10T06:31:53;12.07;;;3.70;;
41861;SDS011;27537;57.134;-2.136;2023-06-10T06:34:20;9.23;;;3.28;;
41861;SDS011;27537;57.134;-2.136;2023-06-10T06:36:46;10.82;;;3.10;;
41861;SDS011;27537;57.134;-2.136;2023-06-10T06:39:13;10.13;;;3.03;;
41861;SDS011;27537;57.134;-2.136;2023-06-10T06:41:40;9.15;;;3.00;;
41861;SDS011;27537;57.134;-2.136;2023-06-10T06:44:06;10.32;;;3.10;;
41861;SDS011;27537;57.134;-2.136;2023-06-10T06:46:33;10.55;;;3.33;;
41861;SDS011;27537;57.134;-2.136;2023-06-10T06:49:00;7.32;;;2.90;;
41861;SDS011;27537;57.134;-2.136;2023-06-10T06:51:27;12.68;;;3.40;;
41861;SDS011;27537;57.134;-2.136;2023-06-10T06:53:53;7.95;;;2.88;;
41861;SDS011;27537;57.134;-2.136;2023-06-10T06:56:23;10.63;;;3.45;;
41861;SDS011;27537;57.134;-2.136;2023-06-10T06:58:49;11.82;;;3.17;;
41861;SDS011;27537;57.134;-2.136;2023-06-10T07:01:16;9.73;;;3.13;;
41861;SDS011;27537;57.134;-2.136;2023-06-10T07:03:43;9.52;;;3.30;;
41861;SDS011;27537;57.134;-2.136;2023-06-10T07:06:12;10.52;;;2.72;;
41861;SDS011;27537;57.134;-2.136;2023-06-10T07:08:39;10.15;;;3.10;;
41861;SDS011;27537;57.134;-2.136;2023-06-10T07:11:06;7.70;;;2.90;;
41861;SDS011;27537;57.134;-2.136;2023-06-10T07:13:33;7.28;;;2.58;;
41861;SDS011;27537;57.134;-2.136;2023-06-10T07:15:59;11.07;;;3.42;;
41861;SDS011;27537;57.134;-2.136;2023-06-10T07:18:26;14.80;;;3.83;;
41861;SDS011;27537;57.134;-2.136;2023-06-10T07:20:53;9.85;;;2.58;;
41861;SDS011;27537;57.134;-2.136;2023-06-10T07:23:19;9.95;;;2.80;;
41861;SDS011;27537;57.134;-2.136;2023-06-10T07:25:46;7.15;;;2.35;;
41861;SDS011;27537;57.134;-2.136;2023-06-10T07:28:13;10.30;;;2.83;;
41861;SDS011;27537;57.134;-2.136;2023-06-10T07:30:40;12.02;;;2.80;;
41861;SDS011;27537;57.134;-2.136;2023-06-10T07:33:07;10.43;;;3.15;;
41861;SDS011;27537;57.134;-2.136;2023-06-10T07:35:34;10.90;;;3.70;;
41861;SDS011;27537;57.134;-2.136;2023-06-10T07:38:01;8.40;;;2.53;;
41861;SDS011;27537;57.134;-2.136;2023-06-10T07:40:27;10.10;;;2.92;;
41861;SDS011;27537;57.134;-2.136;2023-06-10T07:42:54;11.77;;;3.67;;
41861;SDS011;27537;57.134;-2.136;2023-06-10T07:45:21;10.70;;;3.22;;
41861;SDS011;27537;57.134;-2.136;2023-06-10T07:47:48;12.65;;;3.03;;
41861;SDS011;27537;57.134;-2.136;2023-06-10T07:50:15;11.63;;;2.55;;
41861;SDS011;27537;57.134;-2.136;2023-06-10T07:52:41;9.73;;;3.00;;
41861;SDS011;27537;57.134;-2.136;2023-06-10T07:55:08;12.68;;;3.38;;
41861;SDS011;27537;57.134;-2.136;2023-06-10T07:57:35;11.30;;;3.28;;
41861;SDS011;27537;57.134;-2.136;2023-06-10T08:00:05;9.25;;;2.83;;
41861;SDS011;27537;57.134;-2.136;2023-06-10T08:02:32;10.98;;;2.80;;
41861;SDS011;27537;57.134;-2.136;2023-06-10T08:04:59;10.48;;;2.85;;
41861;SDS011;27537;57.134;-2.136;2023-06-10T08:07:26;14.05;;;2.75;;
41861;SDS011;27537;57.134;-2.136;2023-06-10T08:09:52;8.63;;;2.78;;
41861;SDS011;27537;57.134;-2.136;2023-06-10T08:12:19;8.70;;;2.80;;
41861;SDS011;27537;57.134;-2.136;2023-06-10T08:14:46;12.15;;;3.10;;
41861;SDS011;27537;57.134;-2.136;2023-06-10T08:17:13;7.20;;;2.30;;
41861;SDS011;27537;57.134;-2.136;2023-06-10T08:19:40;10.02;;;2.92;;
41861;SDS011;27537;57.134;-2.136;2023-06-10T08:22:07;12.95;;;3.38;;
41861;SDS011;27537;57.134;-2.136;2023-06-10T08:24:34;10.60;;;2.50;;
41861;SDS011;27537;57.134;-2.136;2023-06-10T08:27:01;8.93;;;3.05;;
41861;SDS011;27537;57.134;-2.136;2023-06-10T08:29:27;10.55;;;3.30;;
41861;SDS011;27537;57.134;-2.136;2023-06-10T08:31:55;11.60;;;3.15;;
41861;SDS011;27537;57.134;-2.136;2023-06-10T08:34:22;9.15;;;3.00;;
41861;SDS011;27537;57.134;-2.136;2023-06-10T08:36:49;11.75;;;3.33;;
41861;SDS011;27537;57.134;-2.136;2023-06-10T08:39:19;11.55;;;3.15;;
41861;SDS011;27537;57.134;-2.136;2023-06-10T08:41:49;12.52;;;4.18;;
41861;SDS011;27537;57.134;-2.136;2023-06-10T08:44:32;10.93;;;3.05;;
41861;SDS011;27537;57.134;-2.136;2023-06-10T08:46:59;9.68;;;2.90;;
41861;SDS011;27537;57.134;-2.136;2023-06-10T08:49:27;9.88;;;2.90;;
41861;SDS011;27537;57.134;-2.136;2023-06-10T08:52:00;10.30;;;3.05;;
41861;SDS011;27537;57.134;-2.136;2023-06-10T08:54:30;10.35;;;3.10;;
41861;SDS011;27537;57.134;-2.136;2023-06-10T08:57:02;13.05;;;3.47;;
41861;SDS011;27537;57.134;-2.136;2023-06-10T08:59:32;13.45;;;3.78;;
41861;SDS011;27537;57.134;-2.136;2023-06-10T09:01:59;11.73;;;3.67;;
41861;SDS011;27537;57.134;-2.136;2023-06-10T09:04:27;9.82;;;3.03;;
41861;SDS011;27537;57.134;-2.136;2023-06-10T09:06:54;13.57;;;3.88;;
41861;SDS011;27537;57.134;-2.136;2023-06-10T09:09:22;6.97;;;2.70;;
41861;SDS011;27537;57.134;-2.136;2023-06-10T09:11:51;9.80;;;2.83;;
41861;SDS011;27537;57.134;-2.136;2023-06-10T09:14:18;11.88;;;3.30;;
41861;SDS011;27537;57.134;-2.136;2023-06-10T09:16:45;12.02;;;3.20;;
41861;SDS011;27537;57.134;-2.136;2023-06-10T09:19:13;10.85;;;3.55;;
41861;SDS011;27537;57.134;-2.136;2023-06-10T09:21:41;10.32;;;3.50;;
41861;SDS011;27537;57.134;-2.136;2023-06-10T09:24:08;11.98;;;3.70;;
41861;SDS011;27537;57.134;-2.136;2023-06-10T09:26:35;8.75;;;2.85;;
41861;SDS011;27537;57.134;-2.136;2023-06-10T09:29:02;9.27;;;2.78;;
41861;SDS011;27537;57.134;-2.136;2023-06-10T09:31:31;12.70;;;3.13;;
41861;SDS011;27537;57.134;-2.136;2023-06-10T09:34:08;9.07;;;2.65;;
41861;SDS011;27537;57.134;-2.136;2023-06-10T09:36:39;11.05;;;3.33;;
41861;SDS011;27537;57.134;-2.136;2023-06-10T09:39:13;9.38;;;3.75;;
41861;SDS011;27537;57.134;-2.136;2023-06-10T09:41:42;9.00;;;3.00;;
41861;SDS011;27537;57.134;-2.136;2023-06-10T09:44:14;14.43;;;3.40;;
41861;SDS011;27537;57.134;-2.136;2023-06-10T09:46:45;13.52;;;3.42;;
41861;SDS011;27537;57.134;-2.136;2023-06-10T09:49:13;8.30;;;2.50;;
41861;SDS011;27537;57.134;-2.136;2023-06-10T09:51:51;12.45;;;3.35;;
41861;SDS011;27537;57.134;-2.136;2023-06-10T09:54:21;13.10;;;3.33;;
41861;SDS011;27537;57.134;-2.136;2023-06-10T09:56:50;9.45;;;2.78;;
41861;SDS011;27537;57.134;-2.136;2023-06-10T09:59:30;11.65;;;3.33;;
41861;SDS011;27537;57.134;-2.136;2023-06-10T10:02:01;9.85;;;2.78;;
41861;SDS011;27537;57.134;-2.136;2023-06-10T10:04:27;12.32;;;3.00;;
41861;SDS011;27537;57.134;-2.136;2023-06-10T10:06:55;11.20;;;2.80;;
41861;SDS011;27537;57.134;-2.136;2023-06-10T10:09:22;11.27;;;2.95;;
41861;SDS011;27537;57.134;-2.136;2023-06-10T10:11:48;9.30;;;2.97;;
41861;SDS011;27537;57.134;-2.136;2023-06-10T10:14:18;11.75;;;2.72;;
41861;SDS011;27537;57.134;-2.136;2023-06-10T10:16:47;10.50;;;3.05;;
41861;SDS011;27537;57.134;-2.136;2023-06-10T10:19:17;8.63;;;3.00;;
41861;SDS011;27537;57.134;-2.136;2023-06-10T10:21:53;14.13;;;3.70;;
41861;SDS011;27537;57.134;-2.136;2023-06-10T10:24:21;15.55;;;4.07;;
41861;SDS011;27537;57.134;-2.136;2023-06-10T10:26:52;10.98;;;3.35;;
41861;SDS011;27537;57.134;-2.136;2023-06-10T10:31:51;11.77;;;3.22;;
41861;SDS011;27537;57.134;-2.136;2023-06-10T10:34:24;11.85;;;3.47;;
41861;SDS011;27537;57.134;-2.136;2023-06-10T10:37:01;10.13;;;2.78;;
41861;SDS011;27537;57.134;-2.136;2023-06-10T10:39:29;11.52;;;3.28;;
41861;SDS011;27537;57.134;-2.136;2023-06-10T10:41:57;12.73;;;3.13;;
41861;SDS011;27537;57.134;-2.136;2023-06-10T10:44:24;14.30;;;3.50;;
41861;SDS011;27537;57.134;-2.136;2023-06-10T10:46:51;12.18;;;3.45;;
41861;SDS011;27537;57.134;-2.136;2023-06-10T10:49:20;11.63;;;3.30;;
41861;SDS011;27537;57.134;-2.136;2023-06-10T10:52:00;10.50;;;3.30;;
41861;SDS011;27537;57.134;-2.136;2023-06-10T10:54:32;11.25;;;3.38;;
41861;SDS011;27537;57.134;-2.136;2023-06-10T10:57:09;10.18;;;3.00;;
41861;SDS011;27537;57.134;-2.136;2023-06-10T11:02:18;13.45;;;3.17;;
41861;SDS011;27537;57.134;-2.136;2023-06-10T11:04:46;10.73;;;3.80;;
41861;SDS011;27537;57.134;-2.136;2023-06-10T11:07:14;9.45;;;2.88;;
41861;SDS011;27537;57.134;-2.136;2023-06-10T11:15:12;12.88;;;3.65;;
41861;SDS011;27537;57.134;-2.136;2023-06-10T11:34:04;10.52;;;3.38;;
41861;SDS011;27537;57.134;-2.136;2023-06-10T11:36:33;13.05;;;4.32;;
41861;SDS011;27537;57.134;-2.136;2023-06-10T11:39:03;11.75;;;3.20;;
41861;SDS011;27537;57.134;-2.136;2023-06-10T11:41:32;21.52;;;5.13;;
41861;SDS011;27537;57.134;-2.136;2023-06-10T11:44:03;11.32;;;3.10;;
41861;SDS011;27537;57.134;-2.136;2023-06-10T11:46:34;12.60;;;3.80;;
41861;SDS011;27537;57.134;-2.136;2023-06-10T11:49:02;10.32;;;3.33;;
41861;SDS011;27537;57.134;-2.136;2023-06-10T11:51:31;11.52;;;3.63;;
41861;SDS011;27537;57.134;-2.136;2023-06-10T11:54:09;13.45;;;3.60;;
41861;SDS011;27537;57.134;-2.136;2023-06-10T11:56:41;10.30;;;3.22;;
41861;SDS011;27537;57.134;-2.136;2023-06-10T11:59:08;11.85;;;3.92;;
41861;SDS011;27537;57.134;-2.136;2023-06-10T12:01:42;13.23;;;4.50;;
41861;SDS011;27537;57.134;-2.136;2023-06-10T12:04:11;9.93;;;2.92;;
41861;SDS011;27537;57.134;-2.136;2023-06-10T12:06:40;11.20;;;3.42;;
41861;SDS011;27537;57.134;-2.136;2023-06-10T12:09:21;12.85;;;3.95;;
41861;SDS011;27537;57.134;-2.136;2023-06-10T12:12:00;10.52;;;3.58;;
41861;SDS011;27537;57.134;-2.136;2023-06-10T12:19:57;14.20;;;3.58;;
41861;SDS011;27537;57.134;-2.136;2023-06-10T12:22:26;9.55;;;3.40;;
41861;SDS011;27537;57.134;-2.136;2023-06-10T12:27:27;14.30;;;3.03;;
41861;SDS011;27537;57.134;-2.136;2023-06-10T12:29:56;15.50;;;3.70;;
41861;SDS011;27537;57.134;-2.136;2023-06-10T12:33:02;15.02;;;3.53;;
41861;SDS011;27537;57.134;-2.136;2023-06-10T12:35:23;13.90;;;3.58;;
41861;SDS011;27537;57.134;-2.136;2023-06-10T12:38:01;11.52;;;3.60;;
41861;SDS011;27537;57.134;-2.136;2023-06-10T12:40:33;17.13;;;4.03;;
41861;SDS011;27537;57.134;-2.136;2023-06-10T12:43:03;12.73;;;3.92;;
41861;SDS011;27537;57.134;-2.136;2023-06-10T12:45:30;15.75;;;3.80;;
41861;SDS011;27537;57.134;-2.136;2023-06-10T12:48:05;14.45;;;4.25;;
41861;SDS011;27537;57.134;-2.136;2023-06-10T12:50:33;10.93;;;3.38;;
41861;SDS011;27537;57.134;-2.136;2023-06-10T12:52:59;12.98;;;3.67;;
41861;SDS011;27537;57.134;-2.136;2023-06-10T12:55:27;11.50;;;3.33;;
41861;SDS011;27537;57.134;-2.136;2023-06-10T12:57:55;11.48;;;3.95;;
41861;SDS011;27537;57.134;-2.136;2023-06-10T13:00:22;12.50;;;3.78;;
41861;SDS011;27537;57.134;-2.136;2023-06-10T13:02:52;11.65;;;3.38;;
41861;SDS011;27537;57.134;-2.136;2023-06-10T13:05:21;11.93;;;3.50;;
41861;SDS011;27537;57.134;-2.136;2023-06-10T13:07:49;12.90;;;3.75;;
41861;SDS011;27537;57.134;-2.136;2023-06-10T13:10:16;13.60;;;4.03;;
41861;SDS011;27537;57.134;-2.136;2023-06-10T13:12:44;10.70;;;3.70;;
41861;SDS011;27537;57.134;-2.136;2023-06-10T13:15:14;12.50;;;3.47;;
41861;SDS011;27537;57.134;-2.136;2023-06-10T13:17:42;12.82;;;3.42;;
41861;SDS011;27537;57.134;-2.136;2023-06-10T13:20:09;11.45;;;4.03;;
41861;SDS011;27537;57.134;-2.136;2023-06-10T13:22:36;14.80;;;4.13;;
41861;SDS011;27537;57.134;-2.136;2023-06-10T13:25:03;11.82;;;3.58;;
41861;SDS011;27537;57.134;-2.136;2023-06-10T13:27:33;12.40;;;4.85;;
41861;SDS011;27537;57.134;-2.136;2023-06-10T13:30:00;11.23;;;3.45;;
41861;SDS011;27537;57.134;-2.136;2023-06-10T13:32:27;17.63;;;4.25;;
41861;SDS011;27537;57.134;-2.136;2023-06-10T13:34:54;14.10;;;4.72;;
41861;SDS011;27537;57.134;-2.136;2023-06-10T13:37:21;14.48;;;5.03;;
41861;SDS011;27537;57.134;-2.136;2023-06-10T13:39:47;13.23;;;4.20;;
41861;SDS011;27537;57.134;-2.136;2023-06-10T13:42:17;16.02;;;5.32;;
41861;SDS011;27537;57.134;-2.136;2023-06-10T13:44:44;19.50;;;5.28;;
41861;SDS011;27537;57.134;-2.136;2023-06-10T13:47:11;14.32;;;4.97;;
41861;SDS011;27537;57.134;-2.136;2023-06-10T13:49:38;14.98;;;5.75;;
41861;SDS011;27537;57.134;-2.136;2023-06-10T13:52:05;16.38;;;4.93;;
41861;SDS011;27537;57.134;-2.136;2023-06-10T13:54:33;13.85;;;5.70;;
41861;SDS011;27537;57.134;-2.136;2023-06-10T13:57:02;12.75;;;5.35;;
41861;SDS011;27537;57.134;-2.136;2023-06-10T13:59:29;14.55;;;5.03;;
41861;SDS011;27537;57.134;-2.136;2023-06-10T14:01:56;16.63;;;6.60;;
41861;SDS011;27537;57.134;-2.136;2023-06-10T14:04:23;15.45;;;5.65;;
41861;SDS011;27537;57.134;-2.136;2023-06-10T14:06:49;11.20;;;4.30;;
41861;SDS011;27537;57.134;-2.136;2023-06-10T14:09:17;11.68;;;4.47;;
41861;SDS011;27537;57.134;-2.136;2023-06-10T14:11:44;11.73;;;4.90;;
41861;SDS011;27537;57.134;-2.136;2023-06-10T14:14:10;14.02;;;6.05;;
41861;SDS011;27537;57.134;-2.136;2023-06-10T14:16:37;13.93;;;5.53;;
41861;SDS011;27537;57.134;-2.136;2023-06-10T14:19:08;14.30;;;5.47;;
41861;SDS011;27537;57.134;-2.136;2023-06-10T14:21:35;13.63;;;6.30;;
41861;SDS011;27537;57.134;-2.136;2023-06-10T14:24:02;14.30;;;6.32;;
41861;SDS011;27537;57.134;-2.136;2023-06-10T14:26:29;12.50;;;5.57;;
41861;SDS011;27537;57.134;-2.136;2023-06-10T14:28:55;13.60;;;5.47;;
41861;SDS011;27537;57.134;-2.136;2023-06-10T14:31:22;11.70;;;4.80;;
41861;SDS011;27537;57.134;-2.136;2023-06-10T14:33:49;12.50;;;6.47;;
41861;SDS011;27537;57.134;-2.136;2023-06-10T14:36:15;13.77;;;6.18;;
41861;SDS011;27537;57.134;-2.136;2023-06-10T14:38:42;11.50;;;5.38;;
41861;SDS011;27537;57.134;-2.136;2023-06-10T14:41:09;11.80;;;6.20;;
41861;SDS011;27537;57.134;-2.136;2023-06-10T14:43:36;14.18;;;5.78;;
41861;SDS011;27537;57.134;-2.136;2023-06-10T14:46:03;12.18;;;5.50;;
41861;SDS011;27537;57.134;-2.136;2023-06-10T14:48:30;10.75;;;5.50;;
41861;SDS011;27537;57.134;-2.136;2023-06-10T14:50:56;12.90;;;5.60;;
41861;SDS011;27537;57.134;-2.136;2023-06-10T14:53:23;12.38;;;5.57;;
41861;SDS011;27537;57.134;-2.136;2023-06-10T14:55:50;11.07;;;4.88;;
41861;SDS011;27537;57.134;-2.136;2023-06-10T14:58:16;12.90;;;5.20;;
41861;SDS011;27537;57.134;-2.136;2023-06-10T15:00:43;12.07;;;6.18;;
41861;SDS011;27537;57.134;-2.136;2023-06-10T15:03:10;12.95;;;6.13;;
41861;SDS011;27537;57.134;-2.136;2023-06-10T15:05:37;11.88;;;5.82;;
41861;SDS011;27537;57.134;-2.136;2023-06-10T15:08:04;14.18;;;6.07;;
41861;SDS011;27537;57.134;-2.136;2023-06-10T15:10:31;14.10;;;6.47;;